sensor_id;sensor_type;location;lat;lon;timestamp;temperature;humidity
7936;DHT22;4013;49.744;8.118;2023-08-21T04:46:22;21.30;99.90
7936;DHT22;4013;49.744;8.118;2023-08-21T04:48:49;21.40;99.90
7936;DHT22;4013;49.744;8.118;2023-08-21T04:51:16;21.30;99.90
7936;DHT22;4013;49.744;8.118;2023-08-21T04:53:43;21.30;99.90
7936;DHT22;4013;49.744;8.118;2023-08-21T04:56:10;21.30;99.90
7936;DHT22;4013;49.744;8.118;2023-08-21T04:58:37;21.40;99.90
7936;DHT22;4013;49.744;8.118;2023-08-21T05:01:04;21.40;99.90
7936;DHT22;4013;49.744;8.118;2023-08-21T05:03:33;21.40;99.90
7936;DHT22;4013;49.744;8.118;2023-08-21T05:06:00;21.40;99.90
7936;DHT22;4013;49.744;8.118;2023-08-21T05:08:27;21.30;99.90
7936;DHT22;4013;49.744;8.118;2023-08-21T05:10:55;21.30;99.90
7936;DHT22;4013;49.744;8.118;2023-08-21T05:13:22;21.30;99.90
7936;DHT22;4013;49.744;8.118;2023-08-21T05:15:53;21.40;99.90
7936;DHT22;4013;49.744;8.118;2023-08-21T05:18:21;21.30;99.90
7936;DHT22;4013;49.744;8.118;2023-08-21T05:20:50;21.30;99.90
7936;DHT22;4013;49.744;8.118;2023-08-21T05:23:17;21.30;99.90
7936;DHT22;4013;49.744;8.118;2023-08-21T05:25:45;21.30;99.90
7936;DHT22;4013;49.744;8.118;2023-08-21T05:28:11;21.40;99.90
7936;DHT22;4013;49.744;8.118;2023-08-21T05:30:38;21.40;99.90
7936;DHT22;4013;49.744;8.118;2023-08-21T05:33:05;21.40;99.90
7936;DHT22;4013;49.744;8.118;2023-08-21T05:35:33;21.40;99.90
7936;DHT22;4013;49.744;8.118;2023-08-21T05:38:03;21.50;99.90
7936;DHT22;4013;49.744;8.118;2023-08-21T05:40:30;21.50;99.90
7936;DHT22;4013;49.744;8.118;2023-08-21T05:42:57;21.60;99.90
7936;DHT22;4013;49.744;8.118;2023-08-21T05:45:24;21.70;99.90
7936;DHT22;4013;49.744;8.118;2023-08-21T05:47:51;21.70;99.90
7936;DHT22;4013;49.744;8.118;2023-08-21T05:50:18;21.70;99.90
7936;DHT22;4013;49.744;8.118;2023-08-21T05:52:45;21.70;99.90
7936;DHT22;4013;49.744;8.118;2023-08-21T05:55:13;21.70;99.90
7936;DHT22;4013;49.744;8.118;2023-08-21T05:57:40;21.80;99.90
7936;DHT22;4013;49.744;8.118;2023-08-21T06:00:08;21.90;99.90
7936;DHT22;4013;49.744;8.118;2023-08-21T06:02:35;21.90;99.90
7936;DHT22;4013;49.744;8.118;2023-08-21T06:05:02;22.00;99.90
7936;DHT22;4013;49.744;8.118;2023-08-21T06:07:29;22.20;99.90
7936;DHT22;4013;49.744;8.118;2023-08-21T06:09:56;22.30;99.90
7936;DHT22;4013;49.744;8.118;2023-08-21T06:12:24;22.50;99.90
7936;DHT22;4013;49.744;8.118;2023-08-21T06:14:51;22.60;99.90
7936;DHT22;4013;49.744;8.118;2023-08-21T06:17:18;22.70;99.90
7936;DHT22;4013;49.744;8.118;2023-08-21T06:19:45;22.80;99.90
7936;DHT22;4013;49.744;8.118;2023-08-21T06:22:12;22.90;99.90
7936;DHT22;4013;49.744;8.118;2023-08-21T06:24:41;22.90;99.90
7936;DHT22;4013;49.744;8.118;2023-08-21T06:27:08;23.00;99.90
7936;DHT22;4013;49.744;8.118;2023-08-21T06:29:36;23.10;99.90
7936;DHT22;4013;49.744;8.118;2023-08-21T06:32:05;23.30;99.90
7936;DHT22;4013;49.744;8.118;2023-08-21T06:34:32;23.40;99.90
7936;DHT22;4013;49.744;8.118;2023-08-21T06:36:59;23.50;99.90
7936;DHT22;4013;49.744;8.118;2023-08-21T06:39:26;23.70;99.90
7936;DHT22;4013;49.744;8.118;2023-08-21T06:41:53;23.90;99.90
7936;DHT22;4013;49.744;8.118;2023-08-21T06:44:20;24.00;99.90
7936;DHT22;4013;49.744;8.118;2023-08-21T06:46:49;24.10;99.90
7936;DHT22;4013;49.744;8.118;2023-08-21T06:49:16;24.20;99.90
7936;DHT22;4013;49.744;8.118;2023-08-21T06:51:43;24.30;99.90
7936;DHT22;4013;49.744;8.118;2023-08-21T06:54:10;24.50;99.90
7936;DHT22;4013;49.744;8.118;2023-08-21T06:56:37;24.60;99.90
7936;DHT22;4013;49.744;8.118;2023-08-21T06:59:04;24.70;99.90
7936;DHT22;4013;49.744;8.118;2023-08-21T07:01:31;24.80;99.90
7936;DHT22;4013;49.744;8.118;2023-08-21T07:03:59;24.80;99.90
7936;DHT22;4013;49.744;8.118;2023-08-21T07:06:27;24.80;99.90
7936;DHT22;4013;49.744;8.118;2023-08-21T07:08:54;24.80;99.90
7936;DHT22;4013;49.744;8.118;2023-08-21T07:11:21;24.90;99.90
7936;DHT22;4013;49.744;8.118;2023-08-21T07:13:48;25.00;99.90
7936;DHT22;4013;49.744;8.118;2023-08-21T07:16:15;25.00;99.90
7936;DHT22;4013;49.744;8.118;2023-08-21T07:18:42;25.10;99.90
7936;DHT22;4013;49.744;8.118;2023-08-21T07:21:10;25.20;99.90
7936;DHT22;4013;49.744;8.118;2023-08-21T07:23:37;25.30;99.90
7936;DHT22;4013;49.744;8.118;2023-08-21T07:26:04;25.30;99.90
7936;DHT22;4013;49.744;8.118;2023-08-21T07:28:33;25.30;99.90
7936;DHT22;4013;49.744;8.118;2023-08-21T07:31:01;25.30;99.90
7936;DHT22;4013;49.744;8.118;2023-08-21T07:33:28;25.20;99.90
7936;DHT22;4013;49.744;8.118;2023-08-21T07:35:58;25.30;99.90
7936;DHT22;4013;49.744;8.118;2023-08-21T07:38:27;25.40;99.90
7936;DHT22;4013;49.744;8.118;2023-08-21T07:41:02;25.40;99.90
7936;DHT22;4013;49.744;8.118;2023-08-21T07:43:30;25.40;99.90
7936;DHT22;4013;49.744;8.118;2023-08-21T07:45:57;25.50;99.90
7936;DHT22;4013;49.744;8.118;2023-08-21T07:48:24;25.50;99.90
7936;DHT22;4013;49.744;8.118;2023-08-21T07:50:51;25.40;99.90
7936;DHT22;4013;49.744;8.118;2023-08-21T07:53:19;25.40;99.90
7936;DHT22;4013;49.744;8.118;2023-08-21T07:55:47;25.30;99.90
7936;DHT22;4013;49.744;8.118;2023-08-21T07:58:14;25.10;99.90
7936;DHT22;4013;49.744;8.118;2023-08-21T08:00:41;25.00;99.90
7936;DHT22;4013;49.744;8.118;2023-08-21T08:03:09;25.10;99.90
7936;DHT22;4013;49.744;8.118;2023-08-21T08:05:37;25.20;99.90
7936;DHT22;4013;49.744;8.118;2023-08-21T08:08:04;25.30;99.90
7936;DHT22;4013;49.744;8.118;2023-08-21T08:10:31;25.50;99.90
7936;DHT22;4013;49.744;8.118;2023-08-21T08:12:59;25.60;99.90
7936;DHT22;4013;49.744;8.118;2023-08-21T08:15:26;25.80;99.90
7936;DHT22;4013;49.744;8.118;2023-08-21T08:17:54;25.80;99.90
7936;DHT22;4013;49.744;8.118;2023-08-21T08:20:21;26.00;99.90
7936;DHT22;4013;49.744;8.118;2023-08-21T08:22:48;26.00;99.90
7936;DHT22;4013;49.744;8.118;2023-08-21T08:25:15;26.10;99.90
7936;DHT22;4013;49.744;8.118;2023-08-21T08:27:43;26.20;99.90
7936;DHT22;4013;49.744;8.118;2023-08-21T08:30:12;26.20;99.90
7936;DHT22;4013;49.744;8.118;2023-08-21T08:32:40;26.20;99.90
7936;DHT22;4013;49.744;8.118;2023-08-21T08:35:10;26.20;99.90
7936;DHT22;4013;49.744;8.118;2023-08-21T08:37:37;26.30;99.90
7936;DHT22;4013;49.744;8.118;2023-08-21T08:40:06;26.30;99.90
7936;DHT22;4013;49.744;8.118;2023-08-21T08:42:34;26.20;99.90
7936;DHT22;4013;49.744;8.118;2023-08-21T08:45:03;26.40;99.90
7936;DHT22;4013;49.744;8.118;2023-08-21T08:47:33;26.50;99.90
7936;DHT22;4013;49.744;8.118;2023-08-21T08:50:02;26.60;99.90
7936;DHT22;4013;49.744;8.118;2023-08-21T08:52:34;26.50;99.90
7936;DHT22;4013;49.744;8.118;2023-08-21T08:55:01;26.60;99.90
7936;DHT22;4013;49.744;8.118;2023-08-21T08:57:28;26.60;99.90
7936;DHT22;4013;49.744;8.118;2023-08-21T08:59:55;26.70;99.90
7936;DHT22;4013;49.744;8.118;2023-08-21T09:02:24;26.70;99.90
7936;DHT22;4013;49.744;8.118;2023-08-21T09:04:53;26.80;99.90
7936;DHT22;4013;49.744;8.118;2023-08-21T09:07:20;26.80;99.90
7936;DHT22;4013;49.744;8.118;2023-08-21T09:09:48;26.90;99.90
7936;DHT22;4013;49.744;8.118;2023-08-21T09:12:17;26.80;99.90
7936;DHT22;4013;49.744;8.118;2023-08-21T09:14:44;26.90;99.90
7936;DHT22;4013;49.744;8.118;2023-08-21T09:17:12;26.90;99.90
7936;DHT22;4013;49.744;8.118;2023-08-21T09:19:39;27.00;99.90
7936;DHT22;4013;49.744;8.118;2023-08-21T09:22:12;27.00;99.90
7936;DHT22;4013;49.744;8.118;2023-08-21T09:24:40;27.10;99.90
7936;DHT22;4013;49.744;8.118;2023-08-21T09:27:15;27.20;99.90
7936;DHT22;4013;49.744;8.118;2023-08-21T09:29:44;27.20;99.90
7936;DHT22;4013;49.744;8.118;2023-08-21T09:32:12;27.30;99.90
7936;DHT22;4013;49.744;8.118;2023-08-21T09:34:41;27.40;99.90
7936;DHT22;4013;49.744;8.118;2023-08-21T09:37:11;27.40;99.90
7936;DHT22;4013;49.744;8.118;2023-08-21T09:39:38;27.30;99.90
7936;DHT22;4013;49.744;8.118;2023-08-21T09:42:06;27.30;99.90
7936;DHT22;4013;49.744;8.118;2023-08-21T09:44:38;27.40;99.90
7936;DHT22;4013;49.744;8.118;2023-08-21T09:47:08;27.50;99.90
7936;DHT22;4013;49.744;8.118;2023-08-21T09:49:37;27.60;99.90
7936;DHT22;4013;49.744;8.118;2023-08-21T09:52:05;27.60;99.90
7936;DHT22;4013;49.744;8.118;2023-08-21T09:54:34;27.60;99.90
7936;DHT22;4013;49.744;8.118;2023-08-21T09:57:03;27.70;99.90
7936;DHT22;4013;49.744;8.118;2023-08-21T09:59:30;27.70;99.90
7936;DHT22;4013;49.744;8.118;2023-08-21T10:01:58;27.70;99.90
7936;DHT22;4013;49.744;8.118;2023-08-21T10:04:28;27.80;99.90
7936;DHT22;4013;49.744;8.118;2023-08-21T10:06:56;27.90;99.90
7936;DHT22;4013;49.744;8.118;2023-08-21T10:09:24;27.90;99.90
7936;DHT22;4013;49.744;8.118;2023-08-21T10:11:53;27.90;99.90
7936;DHT22;4013;49.744;8.118;2023-08-21T10:14:21;27.90;99.90
7936;DHT22;4013;49.744;8.118;2023-08-21T10:16:50;28.10;99.90
7936;DHT22;4013;49.744;8.118;2023-08-21T10:19:19;28.10;99.90
7936;DHT22;4013;49.744;8.118;2023-08-21T10:21:47;28.20;99.90
7936;DHT22;4013;49.744;8.118;2023-08-21T10:24:26;28.30;99.90
7936;DHT22;4013;49.744;8.118;2023-08-21T10:26:58;28.40;99.90
7936;DHT22;4013;49.744;8.118;2023-08-21T10:29:25;28.50;99.90
7936;DHT22;4013;49.744;8.118;2023-08-21T10:31:59;28.60;99.90
7936;DHT22;4013;49.744;8.118;2023-08-21T10:34:33;28.60;99.90
7936;DHT22;4013;49.744;8.118;2023-08-21T10:37:05;28.60;99.90
7936;DHT22;4013;49.744;8.118;2023-08-21T10:39:33;28.60;99.90
7936;DHT22;4013;49.744;8.118;2023-08-21T10:42:06;28.60;99.90
7936;DHT22;4013;49.744;8.118;2023-08-21T10:44:47;28.60;99.90
7936;DHT22;4013;49.744;8.118;2023-08-21T10:47:18;28.70;99.90
7936;DHT22;4013;49.744;8.118;2023-08-21T10:49:47;28.70;99.90
7936;DHT22;4013;49.744;8.118;2023-08-21T10:52:21;28.80;99.90
7936;DHT22;4013;49.744;8.118;2023-08-21T10:54:50;28.90;99.90
7936;DHT22;4013;49.744;8.118;2023-08-21T10:57:19;28.90;99.90
7936;DHT22;4013;49.744;8.118;2023-08-21T10:59:50;28.90;99.90
7936;DHT22;4013;49.744;8.118;2023-08-21T11:02:17;29.00;99.90
7936;DHT22;4013;49.744;8.118;2023-08-21T11:04:44;29.10;99.90
7936;DHT22;4013;49.744;8.118;2023-08-21T11:07:11;29.10;99.90
7936;DHT22;4013;49.744;8.118;2023-08-21T11:09:38;29.00;99.90
7936;DHT22;4013;49.744;8.118;2023-08-21T11:12:07;29.00;99.90
7936;DHT22;4013;49.744;8.118;2023-08-21T11:14:37;29.00;99.90
7936;DHT22;4013;49.744;8.118;2023-08-21T11:17:04;29.10;99.90
7936;DHT22;4013;49.744;8.118;2023-08-21T11:19:31;29.30;99.90
7936;DHT22;4013;49.744;8.118;2023-08-21T11:21:59;29.30;99.90
7936;DHT22;4013;49.744;8.118;2023-08-21T11:24:40;29.30;99.90
7936;DHT22;4013;49.744;8.118;2023-08-21T11:27:08;29.40;99.90
7936;DHT22;4013;49.744;8.118;2023-08-21T11:29:41;29.50;99.90
7936;DHT22;4013;49.744;8.118;2023-08-21T11:32:09;29.50;99.90
7936;DHT22;4013;49.744;8.118;2023-08-21T11:34:36;29.60;99.90
7936;DHT22;4013;49.744;8.118;2023-08-21T11:37:04;29.60;99.90
7936;DHT22;4013;49.744;8.118;2023-08-21T11:39:44;29.70;99.90
7936;DHT22;4013;49.744;8.118;2023-08-21T11:42:12;29.60;99.90
7936;DHT22;4013;49.744;8.118;2023-08-21T11:44:45;29.70;99.90
7936;DHT22;4013;49.744;8.118;2023-08-21T11:47:13;29.70;99.90
7936;DHT22;4013;49.744;8.118;2023-08-21T11:49:41;29.90;99.90
7936;DHT22;4013;49.744;8.118;2023-08-21T11:52:09;30.00;99.90
7936;DHT22;4013;49.744;8.118;2023-08-21T11:54:37;30.10;99.90
7936;DHT22;4013;49.744;8.118;2023-08-21T11:57:07;30.20;99.90
7936;DHT22;4013;49.744;8.118;2023-08-21T11:59:34;30.30;99.90
7936;DHT22;4013;49.744;8.118;2023-08-21T12:02:09;30.30;99.90
7936;DHT22;4013;49.744;8.118;2023-08-21T12:04:36;30.30;99.90
7936;DHT22;4013;49.744;8.118;2023-08-21T12:07:03;30.30;99.90
7936;DHT22;4013;49.744;8.118;2023-08-21T12:09:31;30.20;99.90
7936;DHT22;4013;49.744;8.118;2023-08-21T12:11:58;30.20;99.90
7936;DHT22;4013;49.744;8.118;2023-08-21T12:14:28;30.10;99.90
7936;DHT22;4013;49.744;8.118;2023-08-21T12:16:55;30.00;99.90
7936;DHT22;4013;49.744;8.118;2023-08-21T12:19:24;30.10;99.90
7936;DHT22;4013;49.744;8.118;2023-08-21T12:21:51;30.20;99.90
7936;DHT22;4013;49.744;8.118;2023-08-21T12:24:18;30.40;99.90
7936;DHT22;4013;49.744;8.118;2023-08-21T12:26:44;30.40;99.90
7936;DHT22;4013;49.744;8.118;2023-08-21T12:29:11;30.40;99.90
7936;DHT22;4013;49.744;8.118;2023-08-21T12:31:38;30.50;99.90
7936;DHT22;4013;49.744;8.118;2023-08-21T12:34:05;30.70;99.90
7936;DHT22;4013;49.744;8.118;2023-08-21T12:36:36;30.70;99.90
7936;DHT22;4013;49.744;8.118;2023-08-21T12:39:03;30.80;98.50
7936;DHT22;4013;49.744;8.118;2023-08-21T12:41:31;30.90;99.00
7936;DHT22;4013;49.744;8.118;2023-08-21T12:43:58;31.00;97.90
7936;DHT22;4013;49.744;8.118;2023-08-21T12:46:25;31.00;97.20
7936;DHT22;4013;49.744;8.118;2023-08-21T12:48:53;31.00;96.90
7936;DHT22;4013;49.744;8.118;2023-08-21T12:51:20;31.00;97.20
7936;DHT22;4013;49.744;8.118;2023-08-21T12:53:48;30.90;99.90
7936;DHT22;4013;49.744;8.118;2023-08-21T12:56:16;30.90;99.90
7936;DHT22;4013;49.744;8.118;2023-08-21T12:58:43;31.00;99.90
7936;DHT22;4013;49.744;8.118;2023-08-21T13:01:10;31.00;97.20
7936;DHT22;4013;49.744;8.118;2023-08-21T13:03:38;31.00;99.60
7936;DHT22;4013;49.744;8.118;2023-08-21T13:06:05;31.20;98.00
7936;DHT22;4013;49.744;8.118;2023-08-21T13:08:32;31.40;99.90
7936;DHT22;4013;49.744;8.118;2023-08-21T13:11:00;31.70;96.50
7936;DHT22;4013;49.744;8.118;2023-08-21T13:13:28;31.90;96.90
7936;DHT22;4013;49.744;8.118;2023-08-21T13:15:55;31.90;95.60
7936;DHT22;4013;49.744;8.118;2023-08-21T13:18:22;31.80;95.00
7936;DHT22;4013;49.744;8.118;2023-08-21T13:20:49;31.60;95.00
7936;DHT22;4013;49.744;8.118;2023-08-21T13:23:16;31.50;96.40
7936;DHT22;4013;49.744;8.118;2023-08-21T13:25:43;31.50;96.90
7936;DHT22;4013;49.744;8.118;2023-08-21T13:28:11;31.60;98.50
7936;DHT22;4013;49.744;8.118;2023-08-21T13:30:38;31.50;96.00
7936;DHT22;4013;49.744;8.118;2023-08-21T13:33:05;31.40;96.50
7936;DHT22;4013;49.744;8.118;2023-08-21T13:35:32;31.20;96.10
7936;DHT22;4013;49.744;8.118;2023-08-21T13:37:59;31.00;98.00
7936;DHT22;4013;49.744;8.118;2023-08-21T13:40:26;30.80;97.30
7936;DHT22;4013;49.744;8.118;2023-08-21T13:42:53;30.90;99.10
7936;DHT22;4013;49.744;8.118;2023-08-21T13:45:23;31.10;99.90
7936;DHT22;4013;49.744;8.118;2023-08-21T13:47:50;31.20;98.10
7936;DHT22;4013;49.744;8.118;2023-08-21T13:50:19;31.30;99.90
7936;DHT22;4013;49.744;8.118;2023-08-21T13:52:47;31.30;97.80
7936;DHT22;4013;49.744;8.118;2023-08-21T13:55:14;31.20;98.00
7936;DHT22;4013;49.744;8.118;2023-08-21T13:57:42;31.20;98.50
7936;DHT22;4013;49.744;8.118;2023-08-21T14:00:10;31.10;99.00
7936;DHT22;4013;49.744;8.118;2023-08-21T14:02:40;31.00;99.20
7936;DHT22;4013;49.744;8.118;2023-08-21T14:05:08;31.20;99.90
7936;DHT22;4013;49.744;8.118;2023-08-21T14:07:36;31.40;98.60
7936;DHT22;4013;49.744;8.118;2023-08-21T14:10:04;31.40;97.40
7936;DHT22;4013;49.744;8.118;2023-08-21T14:12:31;31.40;97.70
7936;DHT22;4013;49.744;8.118;2023-08-21T14:14:58;31.10;98.30
7936;DHT22;4013;49.744;8.118;2023-08-21T14:17:26;31.10;99.60
7936;DHT22;4013;49.744;8.118;2023-08-21T14:19:54;31.30;99.20
7936;DHT22;4013;49.744;8.118;2023-08-21T14:22:21;31.70;93.60
7936;DHT22;4013;49.744;8.118;2023-08-21T14:24:48;31.90;95.30
7936;DHT22;4013;49.744;8.118;2023-08-21T14:27:15;31.70;94.70
7936;DHT22;4013;49.744;8.118;2023-08-21T14:29:43;31.70;93.00
7936;DHT22;4013;49.744;8.118;2023-08-21T14:32:10;31.70;94.10
7936;DHT22;4013;49.744;8.118;2023-08-21T14:34:37;31.60;95.80
7936;DHT22;4013;49.744;8.118;2023-08-21T14:37:06;31.60;96.10
7936;DHT22;4013;49.744;8.118;2023-08-21T14:39:33;31.70;96.60
7936;DHT22;4013;49.744;8.118;2023-08-21T14:42:00;31.80;95.30
7936;DHT22;4013;49.744;8.118;2023-08-21T14:44:28;31.90;93.80
7936;DHT22;4013;49.744;8.118;2023-08-21T14:46:55;32.00;95.70
7936;DHT22;4013;49.744;8.118;2023-08-21T14:49:22;31.90;95.10
7936;DHT22;4013;49.744;8.118;2023-08-21T14:51:49;31.90;95.60
7936;DHT22;4013;49.744;8.118;2023-08-21T14:54:17;31.80;95.80
7936;DHT22;4013;49.744;8.118;2023-08-21T14:56:44;31.90;94.40
7936;DHT22;4013;49.744;8.118;2023-08-21T14:59:11;31.90;93.30
7936;DHT22;4013;49.744;8.118;2023-08-21T15:01:40;32.00;92.30
7936;DHT22;4013;49.744;8.118;2023-08-21T15:04:07;32.10;95.20
7936;DHT22;4013;49.744;8.118;2023-08-21T15:06:35;32.20;90.40
7936;DHT22;4013;49.744;8.118;2023-08-21T15:09:02;32.30;88.10
7936;DHT22;4013;49.744;8.118;2023-08-21T15:11:30;32.10;90.50
7936;DHT22;4013;49.744;8.118;2023-08-21T15:13:57;32.00;88.90
7936;DHT22;4013;49.744;8.118;2023-08-21T15:16:24;31.80;90.90
7936;DHT22;4013;49.744;8.118;2023-08-21T15:18:51;31.70;91.60
7936;DHT22;4013;49.744;8.118;2023-08-21T15:21:18;31.70;92.40
7936;DHT22;4013;49.744;8.118;2023-08-21T15:23:45;31.80;90.80
7936;DHT22;4013;49.744;8.118;2023-08-21T15:26:13;31.90;91.80
7936;DHT22;4013;49.744;8.118;2023-08-21T15:28:41;31.60;93.10
7936;DHT22;4013;49.744;8.118;2023-08-21T15:31:08;31.70;92.90
7936;DHT22;4013;49.744;8.118;2023-08-21T15:33:35;31.90;91.80
7936;DHT22;4013;49.744;8.118;2023-08-21T15:36:02;32.10;90.00
7936;DHT22;4013;49.744;8.118;2023-08-21T15:38:29;32.10;88.50
7936;DHT22;4013;49.744;8.118;2023-08-21T15:40:56;32.10;88.30
7936;DHT22;4013;49.744;8.118;2023-08-21T15:43:23;32.10;88.90
7936;DHT22;4013;49.744;8.118;2023-08-21T15:45:52;32.10;90.60
7936;DHT22;4013;49.744;8.118;2023-08-21T15:48:19;32.10;90.00
7936;DHT22;4013;49.744;8.118;2023-08-21T15:50:46;32.10;88.60
7936;DHT22;4013;49.744;8.118;2023-08-21T15:53:13;32.20;90.20
7936;DHT22;4013;49.744;8.118;2023-08-21T15:55:40;32.10;89.80
7936;DHT22;4013;49.744;8.118;2023-08-21T15:58:07;31.90;92.00
7936;DHT22;4013;49.744;8.118;2023-08-21T16:00:34;31.60;91.40
7936;DHT22;4013;49.744;8.118;2023-08-21T16:03:04;31.40;92.70
7936;DHT22;4013;49.744;8.118;2023-08-21T16:05:31;31.50;92.00
7936;DHT22;4013;49.744;8.118;2023-08-21T16:07:58;31.50;92.70
7936;DHT22;4013;49.744;8.118;2023-08-21T16:10:24;31.20;94.30
7936;DHT22;4013;49.744;8.118;2023-08-21T16:12:51;31.10;93.90
7936;DHT22;4013;49.744;8.118;2023-08-21T16:15:18;31.20;93.80
7936;DHT22;4013;49.744;8.118;2023-08-21T16:17:45;31.20;94.20
7936;DHT22;4013;49.744;8.118;2023-08-21T16:20:13;31.20;94.60
7936;DHT22;4013;49.744;8.118;2023-08-21T16:22:41;31.10;95.00
7936;DHT22;4013;49.744;8.118;2023-08-21T16:25:08;31.10;95.70
7936;DHT22;4013;49.744;8.118;2023-08-21T16:27:38;31.00;96.20
7936;DHT22;4013;49.744;8.118;2023-08-21T16:30:06;30.80;98.10
7936;DHT22;4013;49.744;8.118;2023-08-21T16:32:33;30.70;97.40
7936;DHT22;4013;49.744;8.118;2023-08-21T16:35:00;30.60;98.10
7936;DHT22;4013;49.744;8.118;2023-08-21T16:37:29;30.70;97.30
7936;DHT22;4013;49.744;8.118;2023-08-21T16:39:56;30.80;97.60
7936;DHT22;4013;49.744;8.118;2023-08-21T16:42:23;30.90;97.40
7936;DHT22;4013;49.744;8.118;2023-08-21T16:44:49;31.00;95.50
7936;DHT22;4013;49.744;8.118;2023-08-21T16:47:16;31.00;94.00
7936;DHT22;4013;49.744;8.118;2023-08-21T16:49:43;31.10;94.60
7936;DHT22;4013;49.744;8.118;2023-08-21T16:52:10;31.00;95.60
7936;DHT22;4013;49.744;8.118;2023-08-21T16:54:39;30.90;96.70
7936;DHT22;4013;49.744;8.118;2023-08-21T16:57:06;30.80;97.80
7936;DHT22;4013;49.744;8.118;2023-08-21T16:59:33;30.70;98.60
7936;DHT22;4013;49.744;8.118;2023-08-21T17:02:00;30.60;99.60
7936;DHT22;4013;49.744;8.118;2023-08-21T17:04:26;30.60;99.90
7936;DHT22;4013;49.744;8.118;2023-08-21T17:06:53;30.70;98.00
7936;DHT22;4013;49.744;8.118;2023-08-21T17:09:21;30.70;98.50
7936;DHT22;4013;49.744;8.118;2023-08-21T17:11:49;30.80;97.80
7936;DHT22;4013;49.744;8.118;2023-08-21T17:14:16;30.80;98.90
7936;DHT22;4013;49.744;8.118;2023-08-21T17:16:43;30.80;99.60
7936;DHT22;4013;49.744;8.118;2023-08-21T17:19:10;30.80;99.90
7936;DHT22;4013;49.744;8.118;2023-08-21T17:21:37;30.80;99.90
7936;DHT22;4013;49.744;8.118;2023-08-21T17:24:04;30.60;99.90
7936;DHT22;4013;49.744;8.118;2023-08-21T17:26:31;30.40;99.90
7936;DHT22;4013;49.744;8.118;2023-08-21T17:29:00;30.30;99.90
7936;DHT22;4013;49.744;8.118;2023-08-21T17:31:28;30.20;99.90
7936;DHT22;4013;49.744;8.118;2023-08-21T17:33:56;30.00;99.90
7936;DHT22;4013;49.744;8.118;2023-08-21T17:36:23;30.00;99.90
7936;DHT22;4013;49.744;8.118;2023-08-21T17:38:50;29.90;99.90
7936;DHT22;4013;49.744;8.118;2023-08-21T17:41:16;29.90;99.90
7936;DHT22;4013;49.744;8.118;2023-08-21T17:43:43;29.80;99.90
7936;DHT22;4013;49.744;8.118;2023-08-21T17:46:11;29.80;99.90
7936;DHT22;4013;49.744;8.118;2023-08-21T17:48:38;29.70;99.90
7936;DHT22;4013;49.744;8.118;2023-08-21T17:51:05;29.50;99.90
7936;DHT22;4013;49.744;8.118;2023-08-21T17:53:32;29.50;99.90
7936;DHT22;4013;49.744;8.118;2023-08-21T17:55:59;29.50;99.90
7936;DHT22;4013;49.744;8.118;2023-08-21T17:58:26;29.40;99.90
7936;DHT22;4013;49.744;8.118;2023-08-21T18:00:53;29.40;99.90
7936;DHT22;4013;49.744;8.118;2023-08-21T18:03:22;29.30;99.90
7936;DHT22;4013;49.744;8.118;2023-08-21T18:05:49;29.30;99.90
7936;DHT22;4013;49.744;8.118;2023-08-21T18:08:16;29.20;99.90
7936;DHT22;4013;49.744;8.118;2023-08-21T18:10:43;29.00;99.90
7936;DHT22;4013;49.744;8.118;2023-08-21T18:13:10;28.90;99.90
7936;DHT22;4013;49.744;8.118;2023-08-21T18:15:36;28.80;99.90
7936;DHT22;4013;49.744;8.118;2023-08-21T18:18:04;28.80;99.90
7936;DHT22;4013;49.744;8.118;2023-08-21T18:20:52;28.70;99.90
7936;DHT22;4013;49.744;8.118;2023-08-21T18:23:22;28.60;99.90
7936;DHT22;4013;49.744;8.118;2023-08-21T18:25:49;28.60;99.90
7936;DHT22;4013;49.744;8.118;2023-08-21T18:28:16;28.40;99.90
7936;DHT22;4013;49.744;8.118;2023-08-21T18:30:48;28.40;99.90
7936;DHT22;4013;49.744;8.118;2023-08-21T18:33:16;28.30;99.90
7936;DHT22;4013;49.744;8.118;2023-08-21T18:35:43;28.20;99.90
7936;DHT22;4013;49.744;8.118;2023-08-21T18:38:11;28.10;99.90
7936;DHT22;4013;49.744;8.118;2023-08-21T18:40:38;28.10;99.90
7936;DHT22;4013;49.744;8.118;2023-08-21T18:43:06;28.00;99.90
7936;DHT22;4013;49.744;8.118;2023-08-21T18:45:33;28.00;99.90
7936;DHT22;4013;49.744;8.118;2023-08-21T18:48:00;27.90;99.90
7936;DHT22;4013;49.744;8.118;2023-08-21T18:50:34;27.90;99.90
7936;DHT22;4013;49.744;8.118;2023-08-21T18:53:03;27.80;99.90
7936;DHT22;4013;49.744;8.118;2023-08-21T18:55:34;27.70;99.90
7936;DHT22;4013;49.744;8.118;2023-08-21T18:58:01;27.70;99.90
7936;DHT22;4013;49.744;8.118;2023-08-21T19:00:28;27.60;99.90
7936;DHT22;4013;49.744;8.118;2023-08-21T19:02:55;27.60;99.90
7936;DHT22;4013;49.744;8.118;2023-08-21T19:05:23;27.60;99.90
7936;DHT22;4013;49.744;8.118;2023-08-21T19:07:50;27.50;99.90
7936;DHT22;4013;49.744;8.118;2023-08-21T19:10:17;27.50;99.90
7936;DHT22;4013;49.744;8.118;2023-08-21T19:12:46;27.50;99.90
7936;DHT22;4013;49.744;8.118;2023-08-21T19:15:13;27.40;99.90
7936;DHT22;4013;49.744;8.118;2023-08-21T19:17:40;27.40;99.90
7936;DHT22;4013;49.744;8.118;2023-08-21T19:20:08;27.30;99.90
7936;DHT22;4013;49.744;8.118;2023-08-21T19:22:35;27.20;99.90
7936;DHT22;4013;49.744;8.118;2023-08-21T19:25:03;27.10;99.90
7936;DHT22;4013;49.744;8.118;2023-08-21T19:27:30;27.10;99.90
7936;DHT22;4013;49.744;8.118;2023-08-21T19:29:59;27.00;99.90
7936;DHT22;4013;49.744;8.118;2023-08-21T19:32:26;26.90;99.90
7936;DHT22;4013;49.744;8.118;2023-08-21T19:34:55;26.80;99.90
7936;DHT22;4013;49.744;8.118;2023-08-21T19:37:22;26.80;99.90
7936;DHT22;4013;49.744;8.118;2023-08-21T19:39:49;26.90;99.90
7936;DHT22;4013;49.744;8.118;2023-08-21T19:42:16;26.80;99.90
7936;DHT22;4013;49.744;8.118;2023-08-21T19:44:43;26.80;99.90
7936;DHT22;4013;49.744;8.118;2023-08-21T19:47:11;26.80;99.90
7936;DHT22;4013;49.744;8.118;2023-08-21T19:49:39;26.80;99.90
7936;DHT22;4013;49.744;8.118;2023-08-21T19:52:06;26.70;99.90
7936;DHT22;4013;49.744;8.118;2023-08-21T19:54:33;26.60;99.90
7936;DHT22;4013;49.744;8.118;2023-08-21T19:57:00;26.60;99.90
7936;DHT22;4013;49.744;8.118;2023-08-21T19:59:28;26.60;99.90
7936;DHT22;4013;49.744;8.118;2023-08-21T20:01:55;26.50;99.90
7936;DHT22;4013;49.744;8.118;2023-08-21T20:04:23;26.50;99.90
7936;DHT22;4013;49.744;8.118;2023-08-21T20:06:50;26.50;99.90
7936;DHT22;4013;49.744;8.118;2023-08-21T20:09:17;26.40;99.90
7936;DHT22;4013;49.744;8.118;2023-08-21T20:11:44;26.40;99.90
7936;DHT22;4013;49.744;8.118;2023-08-21T20:14:11;26.40;99.90
7936;DHT22;4013;49.744;8.118;2023-08-21T20:16:38;26.40;99.90
7936;DHT22;4013;49.744;8.118;2023-08-21T20:19:05;26.30;99.90
7936;DHT22;4013;49.744;8.118;2023-08-21T20:21:34;26.30;99.90
7936;DHT22;4013;49.744;8.118;2023-08-21T20:24:01;26.20;99.90
7936;DHT22;4013;49.744;8.118;2023-08-21T20:26:28;26.10;99.90
7936;DHT22;4013;49.744;8.118;2023-08-21T20:28:58;26.10;99.90
7936;DHT22;4013;49.744;8.118;2023-08-21T20:31:25;26.10;99.90
7936;DHT22;4013;49.744;8.118;2023-08-21T20:33:52;26.10;99.90
7936;DHT22;4013;49.744;8.118;2023-08-21T20:36:19;26.00;99.90
7936;DHT22;4013;49.744;8.118;2023-08-21T20:38:48;25.90;99.90
7936;DHT22;4013;49.744;8.118;2023-08-21T20:41:15;25.90;99.90
7936;DHT22;4013;49.744;8.118;2023-08-21T20:43:42;25.80;99.90
7936;DHT22;4013;49.744;8.118;2023-08-21T20:46:09;25.80;99.90
7936;DHT22;4013;49.744;8.118;2023-08-21T20:48:36;25.70;99.90
7936;DHT22;4013;49.744;8.118;2023-08-21T20:51:03;25.60;99.90